METAR Data
IDs: Format: Raw Decoded Include TAF

Data at: 2324 UTC 29 May 2020

METAR for:KIIB (Independence Muni, IA, US)
Text:KIIB 292315Z AUTO 34010KT 10SM CLR 19/08 A3012 RMK AO2 T01920082
Temperature: 19.2°C ( 67°F)
Dewpoint: 8.2°C ( 47°F) [RH = 49%]
Pressure (altimeter):30.12 inches Hg (1020.1 mb)
Winds:from the NNW (340 degrees) at 12 MPH (10 knots; 5.1 m/s)
Visibility:10 or more sm (16+ km)
Ceiling:at least 12,000 feet AGL
Clouds:sky clear below 12,000 feet AGL
QC Flag:automated observation with no human augmentation